sensor_id;sensor_type;location;lat;lon;timestamp;P1;durP1;ratioP1;P2;durP2;ratioP2
22603;SDS011;11469;49.024;8.246;2023-05-23T00:01:26;18.70;;;13.38;;
22603;SDS011;11469;49.024;8.246;2023-05-23T00:03:51;18.60;;;13.27;;
22603;SDS011;11469;49.024;8.246;2023-05-23T00:06:19;16.92;;;13.00;;
22603;SDS011;11469;49.024;8.246;2023-05-23T00:08:47;15.07;;;13.27;;
22603;SDS011;11469;49.024;8.246;2023-05-23T00:11:13;19.77;;;14.77;;
22603;SDS011;11469;49.024;8.246;2023-05-23T00:13:40;23.17;;;15.50;;
22603;SDS011;11469;49.024;8.246;2023-05-23T00:16:07;22.90;;;15.35;;
22603;SDS011;11469;49.024;8.246;2023-05-23T00:18:37;18.98;;;14.05;;
22603;SDS011;11469;49.024;8.246;2023-05-23T00:21:04;17.48;;;13.63;;
22603;SDS011;11469;49.024;8.246;2023-05-23T00:23:29;20.27;;;13.32;;
22603;SDS011;11469;49.024;8.246;2023-05-23T00:25:57;18.40;;;13.15;;
22603;SDS011;11469;49.024;8.246;2023-05-23T00:28:24;16.85;;;13.35;;
22603;SDS011;11469;49.024;8.246;2023-05-23T00:30:50;17.13;;;13.00;;
22603;SDS011;11469;49.024;8.246;2023-05-23T00:33:15;17.52;;;13.75;;
22603;SDS011;11469;49.024;8.246;2023-05-23T00:35:41;17.45;;;12.85;;
22603;SDS011;11469;49.024;8.246;2023-05-23T00:38:07;15.95;;;11.80;;
22603;SDS011;11469;49.024;8.246;2023-05-23T00:40:33;21.52;;;14.02;;
22603;SDS011;11469;49.024;8.246;2023-05-23T00:42:59;19.85;;;15.13;;
22603;SDS011;11469;49.024;8.246;2023-05-23T00:45:25;19.08;;;14.63;;
22603;SDS011;11469;49.024;8.246;2023-05-23T00:47:51;21.48;;;14.82;;
22603;SDS011;11469;49.024;8.246;2023-05-23T00:50:17;22.67;;;15.20;;
22603;SDS011;11469;49.024;8.246;2023-05-23T00:52:44;23.88;;;16.10;;
22603;SDS011;11469;49.024;8.246;2023-05-23T00:55:10;18.83;;;15.50;;
22603;SDS011;11469;49.024;8.246;2023-05-23T00:57:36;26.17;;;16.30;;
22603;SDS011;11469;49.024;8.246;2023-05-23T01:00:08;20.25;;;15.55;;
22603;SDS011;11469;49.024;8.246;2023-05-23T01:02:44;26.83;;;15.98;;
22603;SDS011;11469;49.024;8.246;2023-05-23T01:05:11;22.23;;;16.77;;
22603;SDS011;11469;49.024;8.246;2023-05-23T01:07:41;23.90;;;17.80;;
22603;SDS011;11469;49.024;8.246;2023-05-23T01:10:10;22.90;;;17.20;;
22603;SDS011;11469;49.024;8.246;2023-05-23T01:18:28;22.05;;;16.95;;
22603;SDS011;11469;49.024;8.246;2023-05-23T01:21:06;21.42;;;16.38;;
22603;SDS011;11469;49.024;8.246;2023-05-23T01:28:42;22.88;;;15.48;;
22603;SDS011;11469;49.024;8.246;2023-05-23T01:31:10;21.42;;;14.63;;
22603;SDS011;11469;49.024;8.246;2023-05-23T01:33:38;21.88;;;15.52;;
22603;SDS011;11469;49.024;8.246;2023-05-23T01:36:04;18.17;;;14.75;;
22603;SDS011;11469;49.024;8.246;2023-05-23T01:38:30;20.75;;;15.30;;
22603;SDS011;11469;49.024;8.246;2023-05-23T01:40:56;24.35;;;17.92;;
22603;SDS011;11469;49.024;8.246;2023-05-23T01:43:21;23.65;;;16.40;;
22603;SDS011;11469;49.024;8.246;2023-05-23T01:45:49;24.25;;;17.05;;
22603;SDS011;11469;49.024;8.246;2023-05-23T01:48:18;23.48;;;17.38;;
22603;SDS011;11469;49.024;8.246;2023-05-23T01:50:45;25.90;;;17.33;;
22603;SDS011;11469;49.024;8.246;2023-05-23T01:53:11;22.42;;;16.73;;
22603;SDS011;11469;49.024;8.246;2023-05-23T01:55:38;23.05;;;17.15;;
22603;SDS011;11469;49.024;8.246;2023-05-23T01:58:05;25.48;;;17.48;;
22603;SDS011;11469;49.024;8.246;2023-05-23T02:00:30;27.92;;;18.85;;
22603;SDS011;11469;49.024;8.246;2023-05-23T02:02:56;26.35;;;19.27;;
22603;SDS011;11469;49.024;8.246;2023-05-23T02:05:21;24.17;;;18.02;;
22603;SDS011;11469;49.024;8.246;2023-05-23T02:07:47;24.52;;;18.13;;
22603;SDS011;11469;49.024;8.246;2023-05-23T02:10:12;26.42;;;19.58;;
22603;SDS011;11469;49.024;8.246;2023-05-23T02:12:37;28.40;;;17.50;;
22603;SDS011;11469;49.024;8.246;2023-05-23T02:15:03;30.13;;;19.33;;
22603;SDS011;11469;49.024;8.246;2023-05-23T02:17:29;27.40;;;19.35;;
22603;SDS011;11469;49.024;8.246;2023-05-23T02:19:54;31.63;;;20.95;;
22603;SDS011;11469;49.024;8.246;2023-05-23T02:22:23;28.13;;;19.33;;
22603;SDS011;11469;49.024;8.246;2023-05-23T02:24:49;24.90;;;18.38;;
22603;SDS011;11469;49.024;8.246;2023-05-23T02:27:15;24.27;;;17.60;;
22603;SDS011;11469;49.024;8.246;2023-05-23T02:29:41;22.73;;;16.50;;
22603;SDS011;11469;49.024;8.246;2023-05-23T02:32:06;25.27;;;17.55;;
22603;SDS011;11469;49.024;8.246;2023-05-23T02:34:32;24.17;;;17.55;;
22603;SDS011;11469;49.024;8.246;2023-05-23T02:36:57;23.58;;;18.40;;
22603;SDS011;11469;49.024;8.246;2023-05-23T02:39:22;31.05;;;20.75;;
22603;SDS011;11469;49.024;8.246;2023-05-23T02:41:48;26.90;;;18.50;;
22603;SDS011;11469;49.024;8.246;2023-05-23T02:44:13;28.67;;;19.38;;
22603;SDS011;11469;49.024;8.246;2023-05-23T02:46:39;25.10;;;18.40;;
22603;SDS011;11469;49.024;8.246;2023-05-23T02:49:04;30.17;;;20.60;;
22603;SDS011;11469;49.024;8.246;2023-05-23T02:51:30;41.25;;;24.65;;
22603;SDS011;11469;49.024;8.246;2023-05-23T02:53:56;39.05;;;25.45;;
22603;SDS011;11469;49.024;8.246;2023-05-23T02:56:21;36.53;;;24.65;;
22603;SDS011;11469;49.024;8.246;2023-05-23T02:58:47;33.47;;;22.33;;
22603;SDS011;11469;49.024;8.246;2023-05-23T03:01:13;36.20;;;22.08;;
22603;SDS011;11469;49.024;8.246;2023-05-23T03:03:38;32.47;;;21.95;;
22603;SDS011;11469;49.024;8.246;2023-05-23T03:06:05;39.63;;;25.67;;
22603;SDS011;11469;49.024;8.246;2023-05-23T03:08:31;42.53;;;27.00;;
22603;SDS011;11469;49.024;8.246;2023-05-23T03:10:57;44.53;;;26.73;;
22603;SDS011;11469;49.024;8.246;2023-05-23T03:13:22;40.17;;;27.58;;
22603;SDS011;11469;49.024;8.246;2023-05-23T03:15:47;33.85;;;23.38;;
22603;SDS011;11469;49.024;8.246;2023-05-23T03:18:13;41.08;;;27.08;;
22603;SDS011;11469;49.024;8.246;2023-05-23T03:20:38;40.42;;;26.15;;
22603;SDS011;11469;49.024;8.246;2023-05-23T03:23:04;32.38;;;23.40;;
22603;SDS011;11469;49.024;8.246;2023-05-23T03:25:29;37.85;;;23.08;;
22603;SDS011;11469;49.024;8.246;2023-05-23T03:27:54;36.35;;;23.88;;
22603;SDS011;11469;49.024;8.246;2023-05-23T03:30:20;29.83;;;21.55;;
22603;SDS011;11469;49.024;8.246;2023-05-23T03:32:46;38.38;;;25.10;;
22603;SDS011;11469;49.024;8.246;2023-05-23T03:35:11;40.72;;;28.92;;
22603;SDS011;11469;49.024;8.246;2023-05-23T03:37:37;39.60;;;26.33;;
22603;SDS011;11469;49.024;8.246;2023-05-23T03:40:02;40.03;;;27.02;;
22603;SDS011;11469;49.024;8.246;2023-05-23T03:42:28;48.38;;;29.38;;
22603;SDS011;11469;49.024;8.246;2023-05-23T03:44:54;51.60;;;31.80;;
22603;SDS011;11469;49.024;8.246;2023-05-23T03:47:20;45.35;;;30.08;;
22603;SDS011;11469;49.024;8.246;2023-05-23T03:49:45;53.83;;;32.50;;
22603;SDS011;11469;49.024;8.246;2023-05-23T03:52:11;47.50;;;29.92;;
22603;SDS011;11469;49.024;8.246;2023-05-23T03:54:36;49.90;;;31.35;;
22603;SDS011;11469;49.024;8.246;2023-05-23T03:57:02;45.85;;;28.27;;
22603;SDS011;11469;49.024;8.246;2023-05-23T03:59:27;45.17;;;29.80;;
22603;SDS011;11469;49.024;8.246;2023-05-23T04:01:53;50.45;;;30.25;;
22603;SDS011;11469;49.024;8.246;2023-05-23T04:04:19;39.78;;;26.42;;
22603;SDS011;11469;49.024;8.246;2023-05-23T04:06:45;43.70;;;30.00;;
22603;SDS011;11469;49.024;8.246;2023-05-23T04:09:11;44.05;;;30.20;;
22603;SDS011;11469;49.024;8.246;2023-05-23T04:11:37;44.95;;;30.77;;
22603;SDS011;11469;49.024;8.246;2023-05-23T04:14:03;42.45;;;29.08;;
22603;SDS011;11469;49.024;8.246;2023-05-23T04:16:28;52.22;;;33.17;;
22603;SDS011;11469;49.024;8.246;2023-05-23T04:18:57;55.40;;;35.20;;
22603;SDS011;11469;49.024;8.246;2023-05-23T04:21:23;55.28;;;36.03;;
22603;SDS011;11469;49.024;8.246;2023-05-23T04:23:48;49.58;;;31.95;;
22603;SDS011;11469;49.024;8.246;2023-05-23T04:26:13;49.17;;;32.15;;
22603;SDS011;11469;49.024;8.246;2023-05-23T04:28:39;45.95;;;30.10;;
22603;SDS011;11469;49.024;8.246;2023-05-23T04:31:04;54.30;;;35.25;;
22603;SDS011;11469;49.024;8.246;2023-05-23T04:33:29;49.63;;;32.00;;
22603;SDS011;11469;49.024;8.246;2023-05-23T04:35:55;53.85;;;36.78;;
22603;SDS011;11469;49.024;8.246;2023-05-23T04:38:21;53.97;;;35.47;;
22603;SDS011;11469;49.024;8.246;2023-05-23T04:40:49;48.35;;;33.25;;
22603;SDS011;11469;49.024;8.246;2023-05-23T04:43:16;44.97;;;31.73;;
22603;SDS011;11469;49.024;8.246;2023-05-23T04:45:42;47.10;;;33.92;;
22603;SDS011;11469;49.024;8.246;2023-05-23T04:48:08;51.63;;;34.95;;
22603;SDS011;11469;49.024;8.246;2023-05-23T04:50:33;53.10;;;34.35;;
22603;SDS011;11469;49.024;8.246;2023-05-23T04:52:59;49.10;;;32.92;;
22603;SDS011;11469;49.024;8.246;2023-05-23T04:55:25;49.30;;;33.25;;
22603;SDS011;11469;49.024;8.246;2023-05-23T04:57:50;50.83;;;34.55;;
22603;SDS011;11469;49.024;8.246;2023-05-23T05:00:16;50.83;;;34.58;;
22603;SDS011;11469;49.024;8.246;2023-05-23T05:02:42;50.92;;;34.85;;
22603;SDS011;11469;49.024;8.246;2023-05-23T05:05:07;49.28;;;34.30;;
22603;SDS011;11469;49.024;8.246;2023-05-23T05:07:33;56.22;;;36.95;;
22603;SDS011;11469;49.024;8.246;2023-05-23T05:10:00;48.72;;;33.92;;
22603;SDS011;11469;49.024;8.246;2023-05-23T05:12:26;57.75;;;39.83;;
22603;SDS011;11469;49.024;8.246;2023-05-23T05:14:51;53.67;;;35.35;;
22603;SDS011;11469;49.024;8.246;2023-05-23T05:17:17;51.00;;;34.50;;
22603;SDS011;11469;49.024;8.246;2023-05-23T05:19:44;51.20;;;35.17;;
22603;SDS011;11469;49.024;8.246;2023-05-23T05:22:10;49.67;;;35.80;;
22603;SDS011;11469;49.024;8.246;2023-05-23T05:24:35;60.10;;;38.35;;
22603;SDS011;11469;49.024;8.246;2023-05-23T05:27:00;53.15;;;37.78;;
22603;SDS011;11469;49.024;8.246;2023-05-23T05:29:26;49.67;;;36.53;;
22603;SDS011;11469;49.024;8.246;2023-05-23T05:31:51;49.22;;;35.47;;
22603;SDS011;11469;49.024;8.246;2023-05-23T05:34:17;61.13;;;38.85;;
22603;SDS011;11469;49.024;8.246;2023-05-23T05:36:42;50.38;;;35.58;;
22603;SDS011;11469;49.024;8.246;2023-05-23T05:39:12;47.35;;;35.22;;
22603;SDS011;11469;49.024;8.246;2023-05-23T05:41:38;51.08;;;34.33;;
22603;SDS011;11469;49.024;8.246;2023-05-23T05:44:04;39.55;;;30.70;;
22603;SDS011;11469;49.024;8.246;2023-05-23T05:46:30;41.28;;;29.38;;
22603;SDS011;11469;49.024;8.246;2023-05-23T05:48:55;41.80;;;28.23;;
22603;SDS011;11469;49.024;8.246;2023-05-23T05:51:21;37.67;;;27.83;;
22603;SDS011;11469;49.024;8.246;2023-05-23T05:53:46;40.58;;;26.65;;
22603;SDS011;11469;49.024;8.246;2023-05-23T05:56:13;37.00;;;27.38;;
22603;SDS011;11469;49.024;8.246;2023-05-23T05:58:39;40.47;;;27.55;;
22603;SDS011;11469;49.024;8.246;2023-05-23T06:01:04;33.10;;;24.63;;
22603;SDS011;11469;49.024;8.246;2023-05-23T06:03:29;34.38;;;24.50;;
22603;SDS011;11469;49.024;8.246;2023-05-23T06:05:56;34.88;;;25.02;;
22603;SDS011;11469;49.024;8.246;2023-05-23T06:08:21;35.25;;;25.25;;
22603;SDS011;11469;49.024;8.246;2023-05-23T06:10:47;33.83;;;24.50;;
22603;SDS011;11469;49.024;8.246;2023-05-23T06:13:12;33.35;;;25.42;;
22603;SDS011;11469;49.024;8.246;2023-05-23T06:15:38;41.67;;;25.48;;
22603;SDS011;11469;49.024;8.246;2023-05-23T06:18:03;37.10;;;24.73;;
22603;SDS011;11469;49.024;8.246;2023-05-23T06:20:28;37.17;;;24.13;;
22603;SDS011;11469;49.024;8.246;2023-05-23T06:22:54;33.70;;;26.08;;
22603;SDS011;11469;49.024;8.246;2023-05-23T06:25:19;34.90;;;24.92;;
22603;SDS011;11469;49.024;8.246;2023-05-23T06:27:45;36.95;;;25.17;;
22603;SDS011;11469;49.024;8.246;2023-05-23T06:30:12;30.90;;;23.67;;
22603;SDS011;11469;49.024;8.246;2023-05-23T06:32:39;31.05;;;23.23;;
22603;SDS011;11469;49.024;8.246;2023-05-23T06:35:04;31.13;;;23.23;;
22603;SDS011;11469;49.024;8.246;2023-05-23T06:37:30;31.08;;;22.63;;
22603;SDS011;11469;49.024;8.246;2023-05-23T06:39:56;29.98;;;22.08;;
22603;SDS011;11469;49.024;8.246;2023-05-23T06:42:21;28.80;;;20.38;;
22603;SDS011;11469;49.024;8.246;2023-05-23T06:44:46;34.65;;;20.52;;
22603;SDS011;11469;49.024;8.246;2023-05-23T06:47:12;26.00;;;19.50;;
22603;SDS011;11469;49.024;8.246;2023-05-23T06:49:37;29.05;;;19.10;;
22603;SDS011;11469;49.024;8.246;2023-05-23T06:52:02;23.45;;;16.33;;
22603;SDS011;11469;49.024;8.246;2023-05-23T06:54:28;24.48;;;13.98;;
22603;SDS011;11469;49.024;8.246;2023-05-23T06:56:53;20.17;;;14.10;;
22603;SDS011;11469;49.024;8.246;2023-05-23T06:59:19;19.25;;;13.13;;
22603;SDS011;11469;49.024;8.246;2023-05-23T07:01:44;19.52;;;12.60;;
22603;SDS011;11469;49.024;8.246;2023-05-23T07:04:09;20.50;;;12.88;;
22603;SDS011;11469;49.024;8.246;2023-05-23T07:06:36;16.45;;;11.73;;
22603;SDS011;11469;49.024;8.246;2023-05-23T07:09:03;14.38;;;11.68;;
22603;SDS011;11469;49.024;8.246;2023-05-23T07:11:29;16.85;;;11.60;;
22603;SDS011;11469;49.024;8.246;2023-05-23T07:13:54;13.38;;;10.15;;
22603;SDS011;11469;49.024;8.246;2023-05-23T07:16:20;16.63;;;9.60;;
22603;SDS011;11469;49.024;8.246;2023-05-23T07:18:45;14.40;;;9.82;;
22603;SDS011;11469;49.024;8.246;2023-05-23T07:21:10;14.50;;;10.13;;
22603;SDS011;11469;49.024;8.246;2023-05-23T07:23:36;15.70;;;9.45;;
22603;SDS011;11469;49.024;8.246;2023-05-23T07:26:01;16.67;;;10.05;;
22603;SDS011;11469;49.024;8.246;2023-05-23T07:28:27;13.52;;;9.82;;
22603;SDS011;11469;49.024;8.246;2023-05-23T07:30:53;14.65;;;10.35;;
22603;SDS011;11469;49.024;8.246;2023-05-23T07:33:18;12.77;;;9.95;;
22603;SDS011;11469;49.024;8.246;2023-05-23T07:35:44;14.98;;;9.18;;
22603;SDS011;11469;49.024;8.246;2023-05-23T07:38:10;21.13;;;9.48;;
22603;SDS011;11469;49.024;8.246;2023-05-23T07:40:35;14.43;;;10.00;;
22603;SDS011;11469;49.024;8.246;2023-05-23T07:43:02;13.10;;;9.48;;
22603;SDS011;11469;49.024;8.246;2023-05-23T07:45:28;15.48;;;9.90;;
22603;SDS011;11469;49.024;8.246;2023-05-23T07:47:53;13.52;;;9.52;;
22603;SDS011;11469;49.024;8.246;2023-05-23T07:50:19;13.35;;;10.20;;
22603;SDS011;11469;49.024;8.246;2023-05-23T07:52:44;14.70;;;10.45;;
22603;SDS011;11469;49.024;8.246;2023-05-23T07:55:10;15.68;;;11.07;;
22603;SDS011;11469;49.024;8.246;2023-05-23T07:57:35;17.42;;;12.35;;
22603;SDS011;11469;49.024;8.246;2023-05-23T08:00:01;18.85;;;12.55;;
22603;SDS011;11469;49.024;8.246;2023-05-23T08:02:26;16.83;;;11.55;;
22603;SDS011;11469;49.024;8.246;2023-05-23T08:04:52;15.52;;;11.93;;
22603;SDS011;11469;49.024;8.246;2023-05-23T08:07:17;18.90;;;11.45;;
22603;SDS011;11469;49.024;8.246;2023-05-23T08:09:43;22.40;;;12.13;;
22603;SDS011;11469;49.024;8.246;2023-05-23T08:12:08;17.90;;;11.85;;
22603;SDS011;11469;49.024;8.246;2023-05-23T08:14:34;18.45;;;12.73;;
22603;SDS011;11469;49.024;8.246;2023-05-23T08:17:00;23.85;;;13.70;;
22603;SDS011;11469;49.024;8.246;2023-05-23T08:19:26;20.58;;;13.60;;
22603;SDS011;11469;49.024;8.246;2023-05-23T08:21:52;18.70;;;13.15;;
22603;SDS011;11469;49.024;8.246;2023-05-23T08:24:18;21.10;;;13.60;;
22603;SDS011;11469;49.024;8.246;2023-05-23T08:26:44;22.88;;;14.68;;
22603;SDS011;11469;49.024;8.246;2023-05-23T08:29:10;24.40;;;14.77;;
22603;SDS011;11469;49.024;8.246;2023-05-23T08:31:35;22.45;;;14.00;;
22603;SDS011;11469;49.024;8.246;2023-05-23T08:34:01;23.70;;;13.70;;
22603;SDS011;11469;49.024;8.246;2023-05-23T08:36:26;22.83;;;13.23;;
22603;SDS011;11469;49.024;8.246;2023-05-23T08:38:52;19.50;;;13.55;;
22603;SDS011;11469;49.024;8.246;2023-05-23T08:41:19;18.90;;;13.57;;
22603;SDS011;11469;49.024;8.246;2023-05-23T08:43:46;21.55;;;12.98;;
22603;SDS011;11469;49.024;8.246;2023-05-23T08:46:12;16.48;;;11.80;;
22603;SDS011;11469;49.024;8.246;2023-05-23T08:48:38;19.58;;;11.38;;
22603;SDS011;11469;49.024;8.246;2023-05-23T08:51:04;21.05;;;11.18;;
22603;SDS011;11469;49.024;8.246;2023-05-23T08:53:33;15.77;;;10.77;;
22603;SDS011;11469;49.024;8.246;2023-05-23T08:56:01;15.10;;;9.52;;
22603;SDS011;11469;49.024;8.246;2023-05-23T08:58:30;16.50;;;9.38;;
22603;SDS011;11469;49.024;8.246;2023-05-23T09:00:58;12.82;;;8.02;;
22603;SDS011;11469;49.024;8.246;2023-05-23T09:03:27;12.07;;;8.15;;
22603;SDS011;11469;49.024;8.246;2023-05-23T09:05:53;13.15;;;7.65;;
22603;SDS011;11469;49.024;8.246;2023-05-23T09:08:20;11.90;;;6.95;;
22603;SDS011;11469;49.024;8.246;2023-05-23T09:10:48;16.98;;;7.40;;
22603;SDS011;11469;49.024;8.246;2023-05-23T09:13:15;9.20;;;6.55;;
22603;SDS011;11469;49.024;8.246;2023-05-23T09:16:02;8.45;;;5.95;;
22603;SDS011;11469;49.024;8.246;2023-05-23T09:18:37;9.70;;;5.28;;
22603;SDS011;11469;49.024;8.246;2023-05-23T09:21:02;19.77;;;6.57;;
22603;SDS011;11469;49.024;8.246;2023-05-23T09:23:29;6.75;;;5.55;;
22603;SDS011;11469;49.024;8.246;2023-05-23T09:25:55;7.50;;;4.85;;
22603;SDS011;11469;49.024;8.246;2023-05-23T09:28:21;8.95;;;4.40;;
22603;SDS011;11469;49.024;8.246;2023-05-23T09:30:47;11.20;;;4.68;;
22603;SDS011;11469;49.024;8.246;2023-05-23T09:33:22;6.07;;;4.57;;
22603;SDS011;11469;49.024;8.246;2023-05-23T09:35:47;8.77;;;5.32;;
22603;SDS011;11469;49.024;8.246;2023-05-23T09:38:12;5.45;;;4.22;;
22603;SDS011;11469;49.024;8.246;2023-05-23T09:40:43;7.38;;;4.82;;
22603;SDS011;11469;49.024;8.246;2023-05-23T09:43:09;7.57;;;4.95;;
22603;SDS011;11469;49.024;8.246;2023-05-23T09:45:34;7.20;;;4.35;;
22603;SDS011;11469;49.024;8.246;2023-05-23T09:48:01;9.02;;;4.57;;
22603;SDS011;11469;49.024;8.246;2023-05-23T09:50:30;5.93;;;4.10;;
22603;SDS011;11469;49.024;8.246;2023-05-23T09:52:57;6.18;;;4.30;;
22603;SDS011;11469;49.024;8.246;2023-05-23T09:55:23;6.18;;;4.53;;
22603;SDS011;11469;49.024;8.246;2023-05-23T09:57:50;10.75;;;5.07;;
22603;SDS011;11469;49.024;8.246;2023-05-23T10:00:18;6.65;;;4.22;;
22603;SDS011;11469;49.024;8.246;2023-05-23T10:08:00;29.20;;;17.33;;
22603;SDS011;11469;49.024;8.246;2023-05-23T10:10:31;8.00;;;4.85;;
22603;SDS011;11469;49.024;8.246;2023-05-23T10:13:02;5.63;;;3.80;;
22603;SDS011;11469;49.024;8.246;2023-05-23T10:15:30;7.20;;;4.38;;
22603;SDS011;11469;49.024;8.246;2023-05-23T10:18:11;6.60;;;4.50;;
22603;SDS011;11469;49.024;8.246;2023-05-23T10:20:42;5.05;;;4.28;;
22603;SDS011;11469;49.024;8.246;2023-05-23T10:23:13;7.80;;;4.10;;
22603;SDS011;11469;49.024;8.246;2023-05-23T10:25:40;5.80;;;3.90;;
22603;SDS011;11469;49.024;8.246;2023-05-23T10:28:07;4.13;;;3.25;;
22603;SDS011;11469;49.024;8.246;2023-05-23T10:30:33;9.25;;;3.60;;
22603;SDS011;11469;49.024;8.246;2023-05-23T10:32:59;4.95;;;3.35;;
22603;SDS011;11469;49.024;8.246;2023-05-23T10:45:40;6.10;;;3.35;;
22603;SDS011;11469;49.024;8.246;2023-05-23T10:51:09;5.28;;;3.80;;
22603;SDS011;11469;49.024;8.246;2023-05-23T10:53:40;4.80;;;4.30;;
22603;SDS011;11469;49.024;8.246;2023-05-23T10:56:07;7.65;;;4.75;;
22603;SDS011;11469;49.024;8.246;2023-05-23T10:58:35;6.90;;;4.60;;
22603;SDS011;11469;49.024;8.246;2023-05-23T11:01:06;8.90;;;5.25;;
22603;SDS011;11469;49.024;8.246;2023-05-23T11:03:37;6.50;;;4.22;;
22603;SDS011;11469;49.024;8.246;2023-05-23T11:09:06;6.35;;;4.20;;
22603;SDS011;11469;49.024;8.246;2023-05-23T11:14:19;6.95;;;3.92;;
22603;SDS011;11469;49.024;8.246;2023-05-23T11:16:55;5.93;;;4.07;;
22603;SDS011;11469;49.024;8.246;2023-05-23T11:19:21;6.90;;;3.97;;
22603;SDS011;11469;49.024;8.246;2023-05-23T11:21:53;5.25;;;3.22;;
22603;SDS011;11469;49.024;8.246;2023-05-23T11:24:23;7.15;;;3.20;;
22603;SDS011;11469;49.024;8.246;2023-05-23T11:26:56;5.72;;;3.38;;
22603;SDS011;11469;49.024;8.246;2023-05-23T11:29:26;6.00;;;3.63;;
22603;SDS011;11469;49.024;8.246;2023-05-23T11:31:53;8.68;;;3.85;;
22603;SDS011;11469;49.024;8.246;2023-05-23T11:34:19;4.53;;;3.78;;
22603;SDS011;11469;49.024;8.246;2023-05-23T11:36:45;4.63;;;3.45;;
22603;SDS011;11469;49.024;8.246;2023-05-23T11:39:12;6.43;;;4.00;;
22603;SDS011;11469;49.024;8.246;2023-05-23T11:41:38;5.85;;;3.60;;
22603;SDS011;11469;49.024;8.246;2023-05-23T11:44:12;3.42;;;3.05;;
22603;SDS011;11469;49.024;8.246;2023-05-23T11:46:38;4.35;;;3.05;;
22603;SDS011;11469;49.024;8.246;2023-05-23T11:49:09;4.43;;;2.70;;
22603;SDS011;11469;49.024;8.246;2023-05-23T11:51:35;3.90;;;2.50;;
22603;SDS011;11469;49.024;8.246;2023-05-23T11:54:01;4.75;;;2.70;;
22603;SDS011;11469;49.024;8.246;2023-05-23T11:56:26;5.70;;;3.78;;
22603;SDS011;11469;49.024;8.246;2023-05-23T11:58:53;3.00;;;2.70;;
22603;SDS011;11469;49.024;8.246;2023-05-23T12:01:19;2.63;;;2.38;;
22603;SDS011;11469;49.024;8.246;2023-05-23T12:03:45;2.53;;;2.05;;
22603;SDS011;11469;49.024;8.246;2023-05-23T12:06:18;3.22;;;2.35;;
22603;SDS011;11469;49.024;8.246;2023-05-23T12:08:45;2.75;;;1.90;;
22603;SDS011;11469;49.024;8.246;2023-05-23T12:11:12;5.70;;;2.30;;
22603;SDS011;11469;49.024;8.246;2023-05-23T12:13:39;2.88;;;2.05;;
22603;SDS011;11469;49.024;8.246;2023-05-23T12:16:06;7.90;;;2.50;;
22603;SDS011;11469;49.024;8.246;2023-05-23T12:18:32;4.80;;;2.70;;
22603;SDS011;11469;49.024;8.246;2023-05-23T12:20:58;3.15;;;2.33;;
22603;SDS011;11469;49.024;8.246;2023-05-23T12:23:26;4.93;;;2.35;;
22603;SDS011;11469;49.024;8.246;2023-05-23T12:25:53;6.80;;;2.72;;
22603;SDS011;11469;49.024;8.246;2023-05-23T12:28:19;3.45;;;2.40;;
22603;SDS011;11469;49.024;8.246;2023-05-23T12:30:45;4.47;;;2.75;;
22603;SDS011;11469;49.024;8.246;2023-05-23T12:33:11;3.60;;;2.72;;
22603;SDS011;11469;49.024;8.246;2023-05-23T12:35:37;3.42;;;2.60;;
22603;SDS011;11469;49.024;8.246;2023-05-23T12:38:06;4.13;;;2.25;;
22603;SDS011;11469;49.024;8.246;2023-05-23T12:40:32;6.15;;;2.10;;
22603;SDS011;11469;49.024;8.246;2023-05-23T12:42:58;3.85;;;2.05;;
22603;SDS011;11469;49.024;8.246;2023-05-23T12:45:24;4.35;;;2.60;;
22603;SDS011;11469;49.024;8.246;2023-05-23T12:47:55;4.55;;;2.50;;
22603;SDS011;11469;49.024;8.246;2023-05-23T12:50:21;3.47;;;2.75;;
22603;SDS011;11469;49.024;8.246;2023-05-23T12:52:46;4.47;;;2.67;;
22603;SDS011;11469;49.024;8.246;2023-05-23T12:55:12;8.63;;;2.50;;
22603;SDS011;11469;49.024;8.246;2023-05-23T12:57:37;4.45;;;2.42;;
22603;SDS011;11469;49.024;8.246;2023-05-23T13:00:03;3.88;;;2.63;;
22603;SDS011;11469;49.024;8.246;2023-05-23T13:02:30;6.15;;;2.58;;
22603;SDS011;11469;49.024;8.246;2023-05-23T13:04:56;3.15;;;2.67;;
22603;SDS011;11469;49.024;8.246;2023-05-23T13:07:22;3.45;;;2.70;;
22603;SDS011;11469;49.024;8.246;2023-05-23T13:09:48;3.95;;;2.47;;
22603;SDS011;11469;49.024;8.246;2023-05-23T13:12:13;3.40;;;2.65;;
22603;SDS011;11469;49.024;8.246;2023-05-23T13:14:39;5.93;;;2.80;;
22603;SDS011;11469;49.024;8.246;2023-05-23T13:17:04;4.78;;;2.65;;
22603;SDS011;11469;49.024;8.246;2023-05-23T13:19:29;3.17;;;2.67;;
22603;SDS011;11469;49.024;8.246;2023-05-23T13:21:55;3.60;;;2.78;;
22603;SDS011;11469;49.024;8.246;2023-05-23T13:24:21;6.35;;;3.35;;
22603;SDS011;11469;49.024;8.246;2023-05-23T13:26:46;5.22;;;3.00;;
22603;SDS011;11469;49.024;8.246;2023-05-23T13:29:11;4.50;;;2.97;;
22603;SDS011;11469;49.024;8.246;2023-05-23T13:31:37;4.35;;;3.20;;
22603;SDS011;11469;49.024;8.246;2023-05-23T13:34:02;3.25;;;2.67;;
22603;SDS011;11469;49.024;8.246;2023-05-23T13:36:27;3.67;;;2.60;;
22603;SDS011;11469;49.024;8.246;2023-05-23T13:38:53;5.00;;;2.40;;
22603;SDS011;11469;49.024;8.246;2023-05-23T13:41:18;2.83;;;2.20;;
22603;SDS011;11469;49.024;8.246;2023-05-23T13:43:44;3.40;;;2.38;;
22603;SDS011;11469;49.024;8.246;2023-05-23T13:46:10;3.97;;;2.55;;
22603;SDS011;11469;49.024;8.246;2023-05-23T13:48:36;3.47;;;2.53;;
22603;SDS011;11469;49.024;8.246;2023-05-23T13:51:01;3.58;;;2.85;;
22603;SDS011;11469;49.024;8.246;2023-05-23T13:53:27;5.40;;;3.90;;
22603;SDS011;11469;49.024;8.246;2023-05-23T13:55:52;4.68;;;3.63;;
22603;SDS011;11469;49.024;8.246;2023-05-23T13:58:18;4.70;;;3.58;;
22603;SDS011;11469;49.024;8.246;2023-05-23T14:00:44;5.18;;;3.90;;
22603;SDS011;11469;49.024;8.246;2023-05-23T14:03:11;7.10;;;4.00;;
22603;SDS011;11469;49.024;8.246;2023-05-23T14:05:36;9.05;;;4.05;;
22603;SDS011;11469;49.024;8.246;2023-05-23T14:08:02;5.25;;;3.83;;
22603;SDS011;11469;49.024;8.246;2023-05-23T14:10:30;7.63;;;3.95;;
22603;SDS011;11469;49.024;8.246;2023-05-23T14:12:57;5.25;;;4.03;;
22603;SDS011;11469;49.024;8.246;2023-05-23T14:15:22;5.63;;;4.03;;
22603;SDS011;11469;49.024;8.246;2023-05-23T14:17:48;5.85;;;4.18;;
22603;SDS011;11469;49.024;8.246;2023-05-23T14:20:19;8.43;;;4.55;;
22603;SDS011;11469;49.024;8.246;2023-05-23T14:22:45;7.30;;;4.60;;
22603;SDS011;11469;49.024;8.246;2023-05-23T14:25:10;5.22;;;4.68;;
22603;SDS011;11469;49.024;8.246;2023-05-23T14:27:35;9.20;;;4.35;;
22603;SDS011;11469;49.024;8.246;2023-05-23T14:30:01;7.55;;;4.60;;
22603;SDS011;11469;49.024;8.246;2023-05-23T14:32:26;8.43;;;4.90;;
22603;SDS011;11469;49.024;8.246;2023-05-23T14:34:52;8.27;;;5.10;;
22603;SDS011;11469;49.024;8.246;2023-05-23T14:37:17;9.77;;;4.65;;
22603;SDS011;11469;49.024;8.246;2023-05-23T14:39:42;6.43;;;4.53;;
22603;SDS011;11469;49.024;8.246;2023-05-23T14:42:08;6.50;;;4.95;;
22603;SDS011;11469;49.024;8.246;2023-05-23T14:44:33;6.95;;;4.88;;
22603;SDS011;11469;49.024;8.246;2023-05-23T14:46:59;9.38;;;4.68;;
22603;SDS011;11469;49.024;8.246;2023-05-23T14:49:24;6.97;;;4.57;;
22603;SDS011;11469;49.024;8.246;2023-05-23T14:51:49;6.38;;;4.85;;
22603;SDS011;11469;49.024;8.246;2023-05-23T14:54:15;8.75;;;4.50;;
22603;SDS011;11469;49.024;8.246;2023-05-23T14:56:40;5.13;;;4.07;;
22603;SDS011;11469;49.024;8.246;2023-05-23T14:59:07;6.60;;;4.70;;
22603;SDS011;11469;49.024;8.246;2023-05-23T15:01:32;6.68;;;4.63;;